Time;durP1;ratioP1;P1;durP2;ratioP2;P2;SDS_P1;SDS_P2;PMS_P1;PMS_P2;Temp;Humidity;BMP_temperature;BMP_pressure;BME280_temperature;BME280_humidity;BME280_pressure;Samples;Min_cycle;Max_cycle;Signal;HPM_P1;HPM_P2
2022/08/01 00:01:14;;;;;;;;;;;;;;;16.18;91.42;98142.41;105874;1282;25248;-78
2022/08/01 00:03:40;;;;;;;;;;;;;;;16.14;91.19;98139.15;105491;1284;124825;-77
2022/08/01 00:06:06;;;;;;;;;;;;;;;16.13;91.29;98137.25;105628;1284;23398;-78
2022/08/01 00:08:32;;;;;;;;;;;;;;;16.09;91.37;98132.27;105938;1282;25317;-79
2022/08/01 00:11:01;;;;;;;;;;;;;;;16.08;91.49;98132.78;105762;1284;125069;-78
2022/08/01 00:13:27;;;;;;;;;;;;;;;16.09;91.47;98131.34;105863;1282;23519;-78
2022/08/01 00:15:53;;;;;;;;;;;;;;;16.09;91.58;98131.05;105833;1282;124569;-79
2022/08/01 00:18:19;;;;;;;;;;;;;;;16.06;91.56;98128.84;106075;1282;23957;-77
2022/08/01 00:20:45;;;;;;;;;;;;;;;16.03;91.53;98129.66;106043;1282;22613;-78
2022/08/01 00:23:11;;;;;;;;;;;;;;;15.99;91.50;98130.73;105741;1282;124752;-77
2022/08/01 00:25:37;;;;;;;;;;;;;;;15.96;91.57;98129.82;105773;1284;25341;-78
2022/08/01 00:28:04;;;;;;;;;;;;;;;15.94;91.69;98134.27;105639;1284;124916;-79
2022/08/01 00:30:30;;;;;;;;;;;;;;;15.93;91.82;98132.80;105621;1284;22711;-77
2022/08/01 00:32:56;;;;;;;;;;;;;;;15.92;91.96;98133.14;105625;1283;22540;-77
2022/08/01 00:35:22;;;;;;;;;;;;;;;15.93;91.95;98134.50;105752;1282;124632;-79
2022/08/01 00:37:48;;;;;;;;;;;;;;;15.93;92.06;98134.51;105641;1282;22584;-80
2022/08/01 00:40:14;;;;;;;;;;;;;;;15.93;91.95;98132.20;105670;1282;124959;-78
2022/08/01 00:42:41;;;;;;;;;;;;;;;15.93;92.11;98134.12;105782;1282;22542;-79
2022/08/01 00:45:07;;;;;;;;;;;;;;;15.93;91.86;98133.58;105590;1284;22575;-78
2022/08/01 00:47:33;;;;;;;;;;;;;;;15.93;91.95;98134.02;105506;1284;124873;-78
2022/08/01 00:49:59;;;;;;;;;;;;;;;15.93;91.97;98136.38;105622;1284;22547;-77
2022/08/01 00:52:26;;;;;;;;;;;;;;;15.91;91.90;98134.24;105500;1283;125012;-78
2022/08/01 00:54:52;;;;;;;;;;;;;;;15.90;92.06;98134.58;105663;1282;24240;-78
2022/08/01 00:57:18;;;;;;;;;;;;;;;15.86;91.91;98132.70;105529;1282;124539;-79
2022/08/01 00:59:44;;;;;;;;;;;;;;;15.82;91.88;98134.27;105839;1282;22551;-77
2022/08/01 01:02:10;;;;;;;;;;;;;;;15.76;91.78;98134.20;105634;1282;22547;-77
2022/08/01 01:04:36;;;;;;;;;;;;;;;15.70;91.65;98133.30;105719;1282;124677;-75
2022/08/01 01:07:11;;;;;;;;;;;;;;;15.65;91.85;98134.38;105690;1284;23565;-78
2022/08/01 01:09:57;;;;;;;;;;;;;;;15.62;92.27;98133.63;105509;1284;124880;-77
2022/08/01 01:12:42;;;;;;;;;;;;;;;15.58;92.18;98135.41;105820;1284;25400;-77
2022/08/01 01:15:09;;;;;;;;;;;;;;;15.50;92.17;98139.47;105531;1284;25337;-77
2022/08/01 01:17:41;;;;;;;;;;;;;;;15.45;92.41;98139.30;105570;1282;124517;-77
2022/08/01 01:20:10;;;;;;;;;;;;;;;15.40;92.83;98136.48;105699;1282;25356;-77
2022/08/01 01:22:54;;;;;;;;;;;;;;;15.39;92.86;98142.35;105510;1282;124665;-76
2022/08/01 01:25:41;;;;;;;;;;;;;;;15.39;93.37;98148.06;105712;1282;22564;-76
2022/08/01 01:28:22;;;;;;;;;;;;;;;15.42;93.39;98147.44;105746;1282;124844;-76
2022/08/01 01:30:50;;;;;;;;;;;;;;;15.47;93.23;98148.45;105745;1282;25379;-76
2022/08/01 01:33:19;;;;;;;;;;;;;;;15.49;93.35;98151.79;105681;1282;25452;-76
2022/08/01 01:35:47;;;;;;;;;;;;;;;15.55;93.52;98150.74;105627;1282;25348;-76
2022/08/01 01:38:24;;;;;;;;;;;;;;;15.59;93.20;98145.77;105616;1282;24309;-77
2022/08/01 01:40:51;;;;;;;;;;;;;;;15.61;92.96;98148.58;105553;1282;124800;-77
2022/08/01 01:43:18;;;;;;;;;;;;;;;15.64;93.08;98148.33;105866;1282;22622;-77
2022/08/01 01:45:47;;;;;;;;;;;;;;;15.68;92.93;98151.36;105684;1282;124887;-76
2022/08/01 01:48:15;;;;;;;;;;;;;;;15.70;93.02;98151.41;106011;1282;22572;-77
2022/08/01 01:50:42;;;;;;;;;;;;;;;15.72;92.74;98149.20;105820;1282;22577;-76
2022/08/01 01:53:10;;;;;;;;;;;;;;;15.73;92.48;98153.98;105709;1282;124241;-76
2022/08/01 01:55:39;;;;;;;;;;;;;;;15.73;92.71;98152.92;105673;1282;22547;-77
2022/08/01 01:58:06;;;;;;;;;;;;;;;15.74;92.47;98146.50;105708;1282;124847;-77
2022/08/01 02:00:34;;;;;;;;;;;;;;;15.74;92.59;98150.50;105674;1282;24080;-76
2022/08/01 02:03:02;;;;;;;;;;;;;;;15.73;92.06;98147.55;106008;1281;22566;-77
2022/08/01 02:05:29;;;;;;;;;;;;;;;15.71;92.28;98147.55;105986;1282;124638;-77
2022/08/01 02:07:56;;;;;;;;;;;;;;;15.71;92.22;98145.27;105866;1283;24521;-77
2022/08/01 02:10:24;;;;;;;;;;;;;;;15.70;92.18;98143.49;105640;1284;124735;-76
2022/08/01 02:12:50;;;;;;;;;;;;;;;15.70;91.90;98140.48;105730;1284;25443;-76
2022/08/01 02:15:17;;;;;;;;;;;;;;;15.67;91.99;98141.11;105554;1282;25258;-77
2022/08/01 02:17:46;;;;;;;;;;;;;;;15.66;91.86;98140.52;105947;1282;25387;-76
2022/08/01 02:20:13;;;;;;;;;;;;;;;15.64;92.24;98139.77;105892;1282;22538;-77
2022/08/01 02:23:02;;;;;;;;;;;;;;;15.64;92.06;98141.58;105527;1282;123958;-77
2022/08/01 02:25:33;;;;;;;;;;;;;;;15.61;91.92;98139.36;105956;1284;22585;-76
2022/08/01 02:28:18;;;;;;;;;;;;;;;15.58;91.80;98140.69;105699;1282;124890;-77
2022/08/01 02:30:46;;;;;;;;;;;;;;;15.55;91.64;98136.98;105681;1282;24332;-76
2022/08/01 02:33:17;;;;;;;;;;;;;;;15.51;91.79;98136.52;105713;1282;22549;-76
2022/08/01 02:35:45;;;;;;;;;;;;;;;15.47;91.61;98139.05;105750;1282;22577;-76
2022/08/01 02:38:13;;;;;;;;;;;;;;;15.44;91.74;98140.52;105830;1282;22577;-76
2022/08/01 02:40:42;;;;;;;;;;;;;;;15.39;91.51;98137.02;105720;1282;124870;-76
2022/08/01 02:43:09;;;;;;;;;;;;;;;15.35;91.72;98144.02;105680;1284;22579;-76
2022/08/01 02:45:37;;;;;;;;;;;;;;;15.33;92.00;98147.11;105460;1284;125236;-76
2022/08/01 02:48:11;;;;;;;;;;;;;;;15.32;91.67;98148.36;105846;1282;22772;-76
2022/08/01 02:50:38;;;;;;;;;;;;;;;15.31;91.98;98153.04;105713;1282;22541;-76
2022/08/01 02:53:06;;;;;;;;;;;;;;;15.31;91.90;98152.93;105581;1282;124457;-76
2022/08/01 02:55:32;;;;;;;;;;;;;;;15.30;91.91;98156.08;105652;1282;22766;-76
2022/08/01 02:58:00;;;;;;;;;;;;;;;15.28;92.08;98153.34;105709;1282;124562;-76
2022/08/01 03:00:27;;;;;;;;;;;;;;;15.27;91.85;98154.39;105645;1282;22582;-76
2022/08/01 03:02:54;;;;;;;;;;;;;;;15.26;92.01;98158.52;105928;1282;22699;-76
2022/08/01 03:05:21;;;;;;;;;;;;;;;15.24;91.97;98160.05;105598;1282;124512;-76
2022/08/01 03:07:48;;;;;;;;;;;;;;;15.22;91.96;98164.61;105644;1282;25589;-76
2022/08/01 03:10:15;;;;;;;;;;;;;;;15.21;91.98;98167.98;105513;1282;124742;-76
2022/08/01 03:12:43;;;;;;;;;;;;;;;15.20;91.87;98168.19;105592;1282;22550;-76
2022/08/01 03:15:10;;;;;;;;;;;;;;;15.17;91.69;98169.91;105802;1282;22583;-76
2022/08/01 03:17:37;;;;;;;;;;;;;;;15.14;91.66;98166.97;105518;1284;124619;-76
2022/08/01 03:20:04;;;;;;;;;;;;;;;15.12;91.64;98166.92;105839;1282;23409;-76
2022/08/01 03:22:32;;;;;;;;;;;;;;;15.10;91.85;98166.33;105521;1282;124112;-76
2022/08/01 03:25:00;;;;;;;;;;;;;;;15.11;91.97;98165.66;105580;1282;22712;-77
2022/08/01 03:27:27;;;;;;;;;;;;;;;15.11;92.10;98167.80;105765;1282;124452;-76
2022/08/01 03:29:55;;;;;;;;;;;;;;;15.10;91.68;98167.53;105785;1282;22702;-76
2022/08/01 03:32:22;;;;;;;;;;;;;;;15.09;91.28;98164.15;105753;1282;22676;-76
2022/08/01 03:34:48;;;;;;;;;;;;;;;15.10;91.82;98160.67;105550;1282;124761;-76
2022/08/01 03:37:26;;;;;;;;;;;;;;;15.11;91.57;98164.23;105556;1282;22556;-77
2022/08/01 03:39:55;;;;;;;;;;;;;;;15.13;91.59;98164.84;105546;1282;125148;-77
2022/08/01 03:42:24;;;;;;;;;;;;;;;15.16;91.63;98163.89;106213;1281;24264;-76
2022/08/01 03:44:54;;;;;;;;;;;;;;;15.21;91.48;98166.44;105643;1282;23932;-76
2022/08/01 03:47:22;;;;;;;;;;;;;;;15.25;91.36;98170.25;105533;1282;124348;-77
2022/08/01 03:49:50;;;;;;;;;;;;;;;15.22;90.91;98173.40;105646;1282;22538;-76
2022/08/01 03:52:16;;;;;;;;;;;;;;;15.17;90.71;98173.09;105686;1282;125358;-76
2022/08/01 03:54:45;;;;;;;;;;;;;;;15.12;90.75;98180.75;105610;1282;22573;-76
2022/08/01 03:57:13;;;;;;;;;;;;;;;15.09;90.65;98185.05;105833;1282;22547;-76
2022/08/01 03:59:39;;;;;;;;;;;;;;;15.07;90.92;98184.48;105839;1282;124198;-77
2022/08/01 04:02:07;;;;;;;;;;;;;;;15.06;90.69;98187.95;105644;1282;24382;-76
2022/08/01 04:04:33;;;;;;;;;;;;;;;15.01;90.61;98190.98;105568;1282;124316;-76
2022/08/01 04:07:03;;;;;;;;;;;;;;;14.96;90.37;98184.55;105944;1282;22449;-76
2022/08/01 04:09:31;;;;;;;;;;;;;;;14.92;90.48;98189.48;105506;1284;124840;-76
2022/08/01 04:12:00;;;;;;;;;;;;;;;14.90;90.64;98189.23;105698;1282;22563;-76
2022/08/01 04:14:27;;;;;;;;;;;;;;;14.90;91.00;98191.36;105663;1282;22570;-76
2022/08/01 04:16:54;;;;;;;;;;;;;;;14.92;90.99;98195.30;105872;1282;124110;-76
2022/08/01 04:19:20;;;;;;;;;;;;;;;14.93;90.95;98196.19;105491;1282;22554;-76
2022/08/01 04:21:46;;;;;;;;;;;;;;;14.93;90.99;98197.22;105455;1282;125556;-76
2022/08/01 04:24:17;;;;;;;;;;;;;;;14.97;91.20;98198.95;106003;1282;22538;-77
2022/08/01 04:26:44;;;;;;;;;;;;;;;15.03;91.33;98199.71;105890;1282;22569;-77
2022/08/01 04:29:10;;;;;;;;;;;;;;;15.08;91.45;98198.25;105648;1282;124719;-77
2022/08/01 04:31:39;;;;;;;;;;;;;;;15.13;91.43;98194.63;105823;1282;25392;-77
2022/08/01 04:34:06;;;;;;;;;;;;;;;15.15;91.22;98195.92;105733;1282;123972;-76
2022/08/01 04:36:34;;;;;;;;;;;;;;;15.12;91.10;98196.42;105854;1282;22600;-77
2022/08/01 04:39:01;;;;;;;;;;;;;;;15.07;90.94;98192.45;105962;1282;22728;-77
2022/08/01 04:41:29;;;;;;;;;;;;;;;15.03;91.01;98195.48;105880;1282;125292;-76
2022/08/01 04:43:59;;;;;;;;;;;;;;;14.98;90.93;98196.60;106216;1282;22587;-77
2022/08/01 04:46:26;;;;;;;;;;;;;;;14.93;91.13;98200.30;105740;1284;125289;-77
2022/08/01 04:48:54;;;;;;;;;;;;;;;14.89;91.19;98201.07;105976;1282;22589;-76
2022/08/01 04:51:22;;;;;;;;;;;;;;;14.89;91.40;98196.91;106313;1284;124333;-77
2022/08/01 04:53:48;;;;;;;;;;;;;;;14.88;91.36;98200.48;105819;1284;24542;-76
2022/08/01 04:56:14;;;;;;;;;;;;;;;14.90;91.67;98203.64;105743;1284;23129;-76
2022/08/01 04:58:41;;;;;;;;;;;;;;;14.90;91.49;98197.88;105701;1282;124769;-76
2022/08/01 05:01:07;;;;;;;;;;;;;;;14.91;91.40;98201.83;105875;1282;22582;-77
2022/08/01 05:03:33;;;;;;;;;;;;;;;14.91;91.24;98202.66;105885;1282;124529;-78
2022/08/01 05:05:59;;;;;;;;;;;;;;;14.88;91.25;98198.17;105754;1282;25343;-76
2022/08/01 05:08:25;;;;;;;;;;;;;;;14.84;91.33;98197.74;106113;1282;24424;-76
2022/08/01 05:10:52;;;;;;;;;;;;;;;14.81;91.44;98196.83;105637;1282;124616;-76
2022/08/01 05:13:19;;;;;;;;;;;;;;;14.81;91.64;98200.50;105687;1284;22774;-76
2022/08/01 05:15:45;;;;;;;;;;;;;;;14.83;91.86;98203.84;105911;1284;125541;-76
2022/08/01 05:18:11;;;;;;;;;;;;;;;14.82;92.00;98202.25;105608;1282;25369;-76
2022/08/01 05:20:37;;;;;;;;;;;;;;;14.85;92.19;98201.20;105966;1282;22635;-76
2022/08/01 05:23:04;;;;;;;;;;;;;;;14.90;92.34;98200.63;105716;1282;124457;-76
2022/08/01 05:25:30;;;;;;;;;;;;;;;14.95;92.31;98200.39;105824;1282;22560;-76
2022/08/01 05:27:56;;;;;;;;;;;;;;;15.00;92.20;98201.35;105837;1282;124660;-76
2022/08/01 05:30:22;;;;;;;;;;;;;;;15.07;92.50;98203.42;105600;1282;22697;-76
2022/08/01 05:32:48;;;;;;;;;;;;;;;15.15;92.49;98203.88;106018;1284;25377;-76
2022/08/01 05:35:14;;;;;;;;;;;;;;;15.23;92.26;98202.74;106181;1284;124583;-77
2022/08/01 05:37:40;;;;;;;;;;;;;;;15.28;92.35;98202.44;105725;1284;22562;-76
2022/08/01 05:40:07;;;;;;;;;;;;;;;15.35;92.17;98200.92;105908;1282;124378;-77
2022/08/01 05:42:33;;;;;;;;;;;;;;;15.41;92.04;98203.70;105786;1282;24048;-77
2022/08/01 05:44:59;;;;;;;;;;;;;;;15.46;92.14;98199.22;105732;1282;23479;-77
2022/08/01 05:47:25;;;;;;;;;;;;;;;15.52;91.89;98199.19;105814;1282;124596;-77
2022/08/01 05:49:51;;;;;;;;;;;;;;;15.59;91.91;98198.32;106015;1282;22564;-77
2022/08/01 05:52:17;;;;;;;;;;;;;;;15.65;91.69;98199.54;106013;1283;124693;-76
2022/08/01 05:54:43;;;;;;;;;;;;;;;15.71;91.43;98197.75;105952;1284;24250;-76
2022/08/01 05:57:09;;;;;;;;;;;;;;;15.76;91.26;98200.33;105945;1284;23021;-76
2022/08/01 05:59:35;;;;;;;;;;;;;;;15.82;91.55;98203.24;105777;1282;123938;-76
2022/08/01 06:02:01;;;;;;;;;;;;;;;15.88;91.38;98206.01;105880;1282;22538;-76
2022/08/01 06:04:27;;;;;;;;;;;;;;;15.93;91.17;98205.53;106025;1282;124802;-77
2022/08/01 06:06:53;;;;;;;;;;;;;;;16.01;91.10;98207.23;105972;1282;22734;-76
2022/08/01 06:09:19;;;;;;;;;;;;;;;16.08;90.84;98205.14;105612;1284;125031;-76
2022/08/01 06:11:45;;;;;;;;;;;;;;;16.15;90.91;98200.86;105810;1284;22586;-77
2022/08/01 06:14:11;;;;;;;;;;;;;;;16.26;90.97;98207.45;105785;1284;23306;-76
2022/08/01 06:16:37;;;;;;;;;;;;;;;16.34;90.39;98203.75;105600;1282;124460;-76
2022/08/01 06:19:03;;;;;;;;;;;;;;;16.41;90.08;98204.95;105803;1282;25427;-76
2022/08/01 06:21:37;;;;;;;;;;;;;;;16.48;90.05;98209.90;105778;1282;125298;-76
2022/08/01 06:24:22;;;;;;;;;;;;;;;16.61;90.30;98210.86;105662;1282;24444;-76
2022/08/01 06:26:48;;;;;;;;;;;;;;;16.73;90.49;98210.95;105418;1284;22566;-76
2022/08/01 06:29:19;;;;;;;;;;;;;;;16.85;90.51;98210.18;105808;1282;124016;-76
2022/08/01 06:31:50;;;;;;;;;;;;;;;16.96;90.00;98214.20;106367;1282;24254;-76
2022/08/01 06:34:21;;;;;;;;;;;;;;;17.04;89.77;98219.17;105327;1284;124738;-77
2022/08/01 06:37:01;;;;;;;;;;;;;;;17.12;88.81;98221.10;106627;1282;24239;-76
2022/08/01 06:39:42;;;;;;;;;;;;;;;17.20;88.24;98222.55;106446;1282;125004;-77
2022/08/01 06:42:09;;;;;;;;;;;;;;;17.26;87.85;98225.01;106607;1282;24361;-78
2022/08/01 06:46:39;;;;;;;;;;;;;;;17.38;87.22;98228.54;102879;1312;544214;-77
2022/08/01 06:49:05;;;;;;;;;;;;;;;17.42;87.18;98232.30;104865;1290;28962;-77
2022/08/01 06:51:32;;;;;;;;;;;;;;;17.49;87.06;98227.46;104909;1290;124240;-77
2022/08/01 06:53:59;;;;;;;;;;;;;;;17.57;86.60;98234.24;104856;1290;22551;-77
2022/08/01 06:56:25;;;;;;;;;;;;;;;17.64;86.15;98232.27;104976;1289;31534;-76
2022/08/01 06:58:52;;;;;;;;;;;;;;;17.72;86.16;98231.50;104785;1287;124722;-73
2022/08/01 07:01:19;;;;;;;;;;;;;;;17.80;85.67;98230.00;104447;1289;554190;-75
2022/08/01 07:03:46;;;;;;;;;;;;;;;17.86;85.38;98232.02;104898;1289;123677;-76
2022/08/01 07:06:14;;;;;;;;;;;;;;;17.94;84.77;98223.98;105230;1286;22544;-74
2022/08/01 07:08:41;;;;;;;;;;;;;;;18.01;84.38;98223.98;105056;1286;25436;-74
2022/08/01 07:11:08;;;;;;;;;;;;;;;18.09;84.09;98229.42;105073;1286;123466;-74
2022/08/01 07:13:35;;;;;;;;;;;;;;;18.17;83.13;98228.25;105498;1286;22573;-74
2022/08/01 07:16:02;;;;;;;;;;;;;;;18.23;82.38;98228.05;105505;1287;123795;-73
2022/08/01 07:18:29;;;;;;;;;;;;;;;18.29;82.22;98222.75;105125;1287;24241;-74
2022/08/01 07:20:56;;;;;;;;;;;;;;;18.35;82.27;98223.42;105096;1287;123833;-74
2022/08/01 07:23:22;;;;;;;;;;;;;;;18.43;82.01;98221.92;105190;1287;24327;-74
2022/08/01 07:25:50;;;;;;;;;;;;;;;18.50;81.10;98222.35;105282;1287;25661;-74
2022/08/01 07:28:17;;;;;;;;;;;;;;;18.58;81.76;98221.70;105503;1286;123212;-75
2022/08/01 07:30:44;;;;;;;;;;;;;;;18.69;81.88;98223.66;105963;1286;22752;-74
2022/08/01 07:33:11;;;;;;;;;;;;;;;18.79;81.75;98222.77;105342;1286;123747;-74
2022/08/01 07:35:39;;;;;;;;;;;;;;;18.90;81.33;98222.08;105301;1286;26625;-74
2022/08/01 07:38:07;;;;;;;;;;;;;;;18.99;80.13;98221.80;105006;1288;22616;-74
2022/08/01 07:40:34;;;;;;;;;;;;;;;19.08;78.99;98220.23;105776;1287;124434;-74
2022/08/01 07:43:01;;;;;;;;;;;;;;;19.20;78.43;98222.27;105507;1286;22554;-73
2022/08/01 07:45:28;;;;;;;;;;;;;;;19.29;76.66;98218.93;105087;1288;123599;-73
2022/08/01 07:47:54;;;;;;;;;;;;;;;19.38;75.96;98219.23;105137;1287;22561;-74
2022/08/01 07:50:21;;;;;;;;;;;;;;;19.47;74.99;98216.23;105758;1286;22552;-74
2022/08/01 07:52:48;;;;;;;;;;;;;;;19.57;74.44;98216.23;106286;1286;124050;-75
2022/08/01 07:55:15;;;;;;;;;;;;;;;19.67;73.83;98216.06;105740;1286;22659;-73
2022/08/01 07:57:41;;;;;;;;;;;;;;;19.78;73.17;98218.11;105420;1288;123795;-73
2022/08/01 08:00:09;;;;;;;;;;;;;;;19.91;72.65;98221.02;105815;1287;22598;-73
2022/08/01 08:02:36;;;;;;;;;;;;;;;20.00;70.84;98222.01;106229;1286;22571;-74
2022/08/01 08:05:03;;;;;;;;;;;;;;;20.10;69.84;98218.79;105784;1287;123563;-73
2022/08/01 08:07:30;;;;;;;;;;;;;;;20.22;69.63;98216.19;105317;1287;22589;-73
2022/08/01 08:09:57;;;;;;;;;;;;;;;20.32;68.15;98209.35;105823;1287;122897;-74
2022/08/01 08:12:24;;;;;;;;;;;;;;;20.40;66.05;98207.98;105588;1287;25428;-74
2022/08/01 08:14:51;;;;;;;;;;;;;;;20.50;64.82;98208.00;105784;1287;22533;-74
2022/08/01 08:17:17;;;;;;;;;;;;;;;20.60;64.79;98207.81;106052;1287;24253;-74
2022/08/01 08:19:44;;;;;;;;;;;;;;;20.72;64.68;98203.85;105551;1287;24112;-75
2022/08/01 08:22:11;;;;;;;;;;;;;;;20.85;63.19;98206.38;105457;1287;123259;-73
2022/08/01 08:24:38;;;;;;;;;;;;;;;20.96;62.00;98209.85;105524;1286;25324;-74
2022/08/01 08:27:05;;;;;;;;;;;;;;;21.09;61.32;98209.60;105211;1287;123605;-75
2022/08/01 08:29:32;;;;;;;;;;;;;;;21.20;61.39;98211.11;105434;1286;30245;-74
2022/08/01 08:32:00;;;;;;;;;;;;;;;21.31;61.70;98208.55;105492;1287;22534;-74
2022/08/01 08:34:27;;;;;;;;;;;;;;;21.48;61.64;98208.59;105392;1287;123458;-74
2022/08/01 08:36:55;;;;;;;;;;;;;;;21.60;60.56;98210.34;105893;1286;22539;-74
2022/08/01 08:39:23;;;;;;;;;;;;;;;21.71;60.06;98212.54;105362;1287;123644;-74
2022/08/01 08:41:49;;;;;;;;;;;;;;;21.83;59.16;98210.30;105297;1287;22552;-75
2022/08/01 08:44:17;;;;;;;;;;;;;;;21.94;58.42;98212.23;105157;1287;24445;-75
2022/08/01 08:46:45;;;;;;;;;;;;;;;22.04;58.26;98211.05;105126;1287;123288;-73
2022/08/01 08:49:16;;;;;;;;;;;;;;;22.15;57.51;98211.60;105271;1287;23317;-75
2022/08/01 08:51:44;;;;;;;;;;;;;;;22.24;57.92;98210.27;105366;1287;125114;-74
2022/08/01 08:54:14;;;;;;;;;;;;;;;22.38;57.03;98205.88;105280;1287;24349;-73
2022/08/01 08:56:41;;;;;;;;;;;;;;;22.53;56.48;98207.04;105518;1287;26992;-74
2022/08/01 08:59:11;;;;;;;;;;;;;;;22.63;55.68;98204.13;105085;1287;123035;-74
2022/08/01 09:01:38;;;;;;;;;;;;;;;22.74;56.73;98200.70;105145;1287;23160;-74
2022/08/01 09:04:05;;;;;;;;;;;;;;;22.89;56.46;98209.02;105228;1287;123284;-74
2022/08/01 09:06:32;;;;;;;;;;;;;;;22.99;53.86;98204.10;105812;1287;22541;-74
2022/08/01 09:09:00;;;;;;;;;;;;;;;23.07;53.23;98202.04;105246;1287;124108;-74
2022/08/01 09:11:26;;;;;;;;;;;;;;;23.17;51.92;98200.45;105518;1287;22544;-74
2022/08/01 09:14:08;;;;;;;;;;;;;;;23.21;53.01;98201.73;105456;1287;25314;-71
2022/08/01 09:16:35;;;;;;;;;;;;;;;23.29;52.62;98203.06;105133;1287;123403;-71
2022/08/01 09:19:19;;;;;;;;;;;;;;;23.37;52.30;98209.23;105371;1287;22558;-74
2022/08/01 09:21:57;;;;;;;;;;;;;;;23.50;53.91;98208.34;105531;1288;123640;-73
2022/08/01 09:24:25;;;;;;;;;;;;;;;23.73;53.79;98205.51;105672;1287;24428;-74
2022/08/01 09:26:52;;;;;;;;;;;;;;;23.93;52.48;98206.26;105377;1287;22561;-74
2022/08/01 09:29:25;;;;;;;;;;;;;;;24.11;51.93;98205.36;105403;1287;24431;-73
2022/08/01 09:31:51;;;;;;;;;;;;;;;24.29;51.05;98208.78;105308;1287;22564;-73
2022/08/01 09:34:29;;;;;;;;;;;;;;;24.48;50.64;98205.89;105602;1287;123890;-73
2022/08/01 09:36:59;;;;;;;;;;;;;;;24.64;49.96;98204.56;105722;1287;22528;-74
2022/08/01 09:39:28;;;;;;;;;;;;;;;24.69;49.04;98206.95;104998;1286;124085;-74
2022/08/01 09:41:56;;;;;;;;;;;;;;;24.72;49.13;98209.63;105693;1283;22550;-73
2022/08/01 09:44:42;;;;;;;;;;;;;;;24.79;49.11;98212.03;105997;1284;22535;-74
2022/08/01 09:47:10;;;;;;;;;;;;;;;24.92;49.19;98215.41;105481;1284;123686;-74
2022/08/01 09:49:37;;;;;;;;;;;;;;;25.11;49.37;98213.08;105727;1284;24233;-73
2022/08/01 09:52:14;;;;;;;;;;;;;;;25.28;49.42;98205.14;105613;1283;123975;-75
2022/08/01 09:54:42;;;;;;;;;;;;;;;25.45;48.69;98212.14;105747;1284;22537;-75
2022/08/01 09:57:09;;;;;;;;;;;;;;;25.63;48.93;98208.88;105441;1284;124030;-74
2022/08/01 09:59:42;;;;;;;;;;;;;;;25.83;48.31;98208.77;105742;1283;23215;-75
2022/08/01 10:02:15;;;;;;;;;;;;;;;26.00;47.82;98205.54;105734;1284;24263;-74
2022/08/01 10:04:49;;;;;;;;;;;;;;;26.21;47.73;98210.92;105485;1283;123470;-74
2022/08/01 10:07:16;;;;;;;;;;;;;;;26.35;46.76;98205.75;105166;1284;22551;-74
2022/08/01 10:09:43;;;;;;;;;;;;;;;26.49;46.11;98210.84;106085;1284;123576;-75
2022/08/01 10:12:11;;;;;;;;;;;;;;;26.43;44.38;98212.73;105547;1284;24245;-75
2022/08/01 10:14:39;;;;;;;;;;;;;;;26.35;44.42;98213.39;105803;1284;25366;-74
2022/08/01 10:17:07;;;;;;;;;;;;;;;26.39;45.22;98210.79;105665;1283;123849;-74
2022/08/01 10:19:35;;;;;;;;;;;;;;;26.44;44.81;98210.13;105537;1284;25561;-74
2022/08/01 10:22:04;;;;;;;;;;;;;;;26.41;46.69;98210.28;105680;1285;124633;-74
2022/08/01 10:24:31;;;;;;;;;;;;;;;26.50;45.69;98209.84;105965;1283;25433;-75
2022/08/01 10:27:02;;;;;;;;;;;;;;;26.51;45.00;98208.02;105860;1284;123957;-76
2022/08/01 10:29:33;;;;;;;;;;;;;;;26.51;43.85;98203.63;106013;1284;25247;-76
2022/08/01 10:32:00;;;;;;;;;;;;;;;26.58;44.62;98205.84;105803;1284;29121;-76
2022/08/01 10:34:27;;;;;;;;;;;;;;;26.67;45.02;98203.29;105828;1284;123875;-77
2022/08/01 10:36:54;;;;;;;;;;;;;;;26.76;44.97;98202.63;106141;1284;22717;-77
2022/08/01 10:39:21;;;;;;;;;;;;;;;26.83;44.46;98201.08;105460;1283;124070;-78
2022/08/01 10:41:48;;;;;;;;;;;;;;;26.94;44.35;98199.20;105862;1286;22561;-76
2022/08/01 10:44:15;;;;;;;;;;;;;;;27.03;44.08;98201.65;105720;1284;23188;-76
2022/08/01 10:46:46;;;;;;;;;;;;;;;27.03;44.67;98197.75;105709;1283;123718;-75
2022/08/01 10:49:15;;;;;;;;;;;;;;;27.02;42.98;98198.27;105827;1282;22619;-76
2022/08/01 10:51:42;;;;;;;;;;;;;;;27.04;43.61;98194.75;106091;1281;126623;-76
2022/08/01 10:54:10;;;;;;;;;;;;;;;27.14;43.88;98198.33;105857;1283;22550;-75
2022/08/01 10:56:40;;;;;;;;;;;;;;;27.22;43.76;98197.49;105847;1281;22534;-76
2022/08/01 10:59:07;;;;;;;;;;;;;;;27.32;43.83;98194.23;105938;1281;123788;-75
2022/08/01 11:01:34;;;;;;;;;;;;;;;27.51;43.31;98191.08;106222;1282;22546;-75
2022/08/01 11:04:03;;;;;;;;;;;;;;;27.59;42.05;98192.96;105918;1282;124243;-77
2022/08/01 11:06:33;;;;;;;;;;;;;;;27.61;41.43;98191.40;105985;1282;25275;-77
2022/08/01 11:09:26;;;;;;;;;;;;;;;27.52;41.30;98193.04;105775;1282;124182;-76
2022/08/01 11:12:02;;;;;;;;;;;;;;;27.57;40.69;98191.55;105642;1283;25251;-76
2022/08/01 11:14:29;;;;;;;;;;;;;;;27.65;42.14;98193.96;105972;1281;24208;-76
2022/08/01 11:16:56;;;;;;;;;;;;;;;27.72;41.77;98197.23;106127;1281;124140;-77
2022/08/01 11:19:23;;;;;;;;;;;;;;;27.71;42.56;98202.80;105720;1283;22544;-76
2022/08/01 11:21:53;;;;;;;;;;;;;;;27.71;42.53;98203.75;105549;1281;123676;-75
2022/08/01 11:24:38;;;;;;;;;;;;;;;27.77;41.35;98202.55;105912;1282;22542;-78
2022/08/01 11:27:17;;;;;;;;;;;;;;;27.89;41.07;98198.41;105721;1281;124620;-77
2022/08/01 11:30:04;;;;;;;;;;;;;;;28.09;41.44;98200.06;105911;1281;25569;-73
2022/08/01 11:32:31;;;;;;;;;;;;;;;28.20;41.20;98195.48;105723;1280;25232;-74
2022/08/01 11:34:57;;;;;;;;;;;;;;;28.29;40.76;98188.77;105851;1280;124181;-74
2022/08/01 11:37:25;;;;;;;;;;;;;;;28.25;41.04;98192.79;106040;1280;22667;-75
2022/08/01 11:40:11;;;;;;;;;;;;;;;28.21;41.21;98189.90;105725;1280;123809;-75
2022/08/01 11:42:38;;;;;;;;;;;;;;;28.20;41.23;98191.07;105673;1280;22548;-74
2022/08/01 11:45:06;;;;;;;;;;;;;;;28.11;41.89;98189.93;105905;1277;124370;-74
2022/08/01 11:47:43;;;;;;;;;;;;;;;27.90;41.42;98191.55;106131;1278;24226;-74
2022/08/01 11:50:28;;;;;;;;;;;;;;;27.74;42.29;98198.16;106249;1277;23210;-74
2022/08/01 11:53:05;;;;;;;;;;;;;;;27.67;41.16;98194.32;105985;1277;125992;-77
2022/08/01 11:55:34;;;;;;;;;;;;;;;27.62;41.18;98193.17;106090;1277;25468;-75
2022/08/01 11:58:03;;;;;;;;;;;;;;;27.62;41.99;98190.79;105806;1277;124465;-78
2022/08/01 12:00:32;;;;;;;;;;;;;;;27.70;42.58;98193.59;106153;1277;23184;-77
2022/08/01 12:03:03;;;;;;;;;;;;;;;27.78;42.14;98191.13;105956;1277;123779;-79
2022/08/01 12:05:31;;;;;;;;;;;;;;;27.71;41.10;98196.48;105801;1277;24376;-75
2022/08/01 12:07:58;;;;;;;;;;;;;;;27.61;40.99;98192.52;106176;1277;22526;-76
2022/08/01 12:10:32;;;;;;;;;;;;;;;27.58;41.65;98190.22;106346;1278;123552;-78
2022/08/01 12:13:06;;;;;;;;;;;;;;;27.61;42.00;98189.33;106466;1277;22649;-75
2022/08/01 12:15:34;;;;;;;;;;;;;;;27.72;42.45;98196.59;105895;1277;124355;-77
2022/08/01 12:18:02;;;;;;;;;;;;;;;27.75;42.84;98192.02;105996;1277;25510;-78
2022/08/01 12:20:30;;;;;;;;;;;;;;;27.81;42.57;98192.80;106289;1277;25243;-77
2022/08/01 12:22:58;;;;;;;;;;;;;;;27.88;42.61;98195.73;105778;1277;124005;-76
2022/08/01 12:25:25;;;;;;;;;;;;;;;27.86;42.95;98196.83;106187;1278;22659;-75
2022/08/01 12:27:52;;;;;;;;;;;;;;;27.81;43.39;98199.76;106068;1279;124191;-77
2022/08/01 12:30:22;;;;;;;;;;;;;;;27.93;43.29;98196.67;106391;1277;22564;-77
2022/08/01 12:32:49;;;;;;;;;;;;;;;28.05;43.34;98197.02;105991;1277;23930;-76
2022/08/01 12:35:22;;;;;;;;;;;;;;;28.18;42.79;98195.77;106103;1277;123506;-76
2022/08/01 12:37:51;;;;;;;;;;;;;;;28.22;41.89;98194.80;106221;1277;26487;-75
2022/08/01 12:40:23;;;;;;;;;;;;;;;28.24;42.13;98193.23;106658;1277;123919;-75
2022/08/01 12:42:51;;;;;;;;;;;;;;;28.28;42.02;98193.55;106121;1277;22525;-78